Time;durP1;ratioP1;P1;durP2;ratioP2;P2;SDS_P1;SDS_P2;PMS_P1;PMS_P2;Temp;Humidity;BMP_temperature;BMP_pressure;BME280_temperature;BME280_humidity;BME280_pressure;Samples;Min_cycle;Max_cycle;Signal;HPM_P1;HPM_P2
2022/02/18 00:00:02;;;;;;;;;;;;;;;;;;2207464;59;1293;-75
2022/02/18 00:02:35;;;;;;;;;;;;;;;;;;2207360;59;1259;-75
2022/02/18 00:05:09;;;;;;;;;;;;;;;;;;2207020;59;1983;-75
2022/02/18 00:07:45;;;;;;;;;;;;;;;;;;2208115;67;1172;-75
2022/02/18 00:10:18;;;;;;;;;;;;;;;;;;2206526;59;1764;-75
2022/02/18 00:12:51;;;;;;;;;;;;;;;;;;2206602;59;1792;-75
2022/02/18 00:15:24;;;;;;;;;;;;;;;;;;2205967;67;1928;-75
2022/02/18 00:18:01;;;;;;;;;;;;;;;;;;2207423;59;1460;-75
2022/02/18 00:20:36;;;;;;;;;;;;;;;;;;2207336;59;1745;-75
2022/02/18 00:23:12;;;;;;;;;;;;;;;;;;2207475;59;1376;-75
2022/02/18 00:25:46;;;;;;;;;;;;;;;;;;2207913;67;1998;-75
2022/02/18 00:28:20;;;;;;;;;;;;;;;;;;2207218;67;1124;-75
2022/02/18 00:30:54;;;;;;;;;;;;;;;;;;2207141;59;2046;-75
2022/02/18 00:33:27;;;;;;;;;;;;;;;;;;2206504;59;1571;-75
2022/02/18 00:36:00;;;;;;;;;;;;;;;;;;2207164;59;2028;-75
2022/02/18 00:38:36;;;;;;;;;;;;;;;;;;2206989;67;1168;-75
2022/02/18 00:41:13;;;;;;;;;;;;;;;;;;2206392;59;1662;-75
2022/02/18 00:43:49;;;;;;;;;;;;;;;;;;2205592;59;1963;-75
2022/02/18 00:46:23;;;;;;;;;;;;;;;;;;2206808;59;1579;-75
2022/02/18 00:48:56;;;;;;;;;;;;;;;;;;2207143;59;1602;-75
2022/02/18 00:51:32;;;;;;;;;;;;;;;;;;2206508;59;1845;-75
2022/02/18 00:54:08;;;;;;;;;;;;;;;;;;2206953;67;1430;-75
2022/02/18 00:56:42;;;;;;;;;;;;;;;;;;2207237;67;1107;-75
2022/02/18 00:59:15;;;;;;;;;;;;;;;;;;2206782;59;1556;-75
2022/02/18 01:01:48;;;;;;;;;;;;;;;;;;2207071;67;1135;-75
2022/02/18 01:04:24;;;;;;;;;;;;;;;;;;2206928;59;1932;-75
2022/02/18 01:06:57;;;;;;;;;;;;;;;;;;2207741;67;1135;-75
2022/02/18 01:09:33;;;;;;;;;;;;;;;;;;2207122;59;1781;-75
2022/02/18 01:12:07;;;;;;;;;;;;;;;;;;2206556;59;1241;-75
2022/02/18 01:14:41;;;;;;;;;;;;;;;;;;2206768;59;1135;-74
2022/02/18 01:17:20;;;;;;;;;;;;;;;;;;2206759;59;1310;-75
2022/02/18 01:19:53;;;;;;;;;;;;;;;;;;2206808;59;1441;-75
2022/02/18 01:22:27;;;;;;;;;;;;;;;;;;2207101;59;1481;-75
2022/02/18 01:25:06;;;;;;;;;;;;;;;;;;2206678;59;1976;-75
2022/02/18 01:27:45;;;;;;;;;;;;;;;;;;2207120;67;982;-75
2022/02/18 01:30:18;;;;;;;;;;;;;;;;;;2206432;59;1776;-75
2022/02/18 01:32:52;;;;;;;;;;;;;;;;;;2206989;59;1392;-75
2022/02/18 01:35:25;;;;;;;;;;;;;;;;;;2206754;59;1622;-75
2022/02/18 01:38:03;;;;;;;;;;;;;;;;;;2207021;59;1574;-75
2022/02/18 01:40:39;;;;;;;;;;;;;;;;;;2206788;59;1259;-75
2022/02/18 01:43:13;;;;;;;;;;;;;;;;;;2206559;59;1549;-75
2022/02/18 01:45:46;;;;;;;;;;;;;;;;;;2206610;59;1971;-75
2022/02/18 01:48:20;;;;;;;;;;;;;;;;;;2205684;59;1986;-75
2022/02/18 01:50:57;;;;;;;;;;;;;;;;;;2206295;59;1975;-75
2022/02/18 01:53:31;;;;;;;;;;;;;;;;;;2206860;67;1214;-75
2022/02/18 01:56:07;;;;;;;;;;;;;;;;;;2207545;59;1478;-75
2022/02/18 01:58:40;;;;;;;;;;;;;;;;;;2206868;67;1172;-75
2022/02/18 02:01:14;;;;;;;;;;;;;;;;;;2207331;59;1682;-75
2022/02/18 02:03:50;;;;;;;;;;;;;;;;;;2206797;59;1569;-75
2022/02/18 02:06:24;;;;;;;;;;;;;;;;;;2206901;67;1993;-75
2022/02/18 02:08:57;;;;;;;;;;;;;;;;;;2206184;59;1916;-75
2022/02/18 02:11:35;;;;;;;;;;;;;;;;;;2205799;59;1755;-75
2022/02/18 02:14:09;;;;;;;;;;;;;;;;;;2206022;59;1668;-75
2022/02/18 02:16:43;;;;;;;;;;;;;;;;;;2206773;59;1809;-75
2022/02/18 02:19:19;;;;;;;;;;;;;;;;;;2207627;59;1793;-75
2022/02/18 02:21:54;;;;;;;;;;;;;;;;;;2206089;59;1563;-74
2022/02/18 02:24:30;;;;;;;;;;;;;;;;;;2207603;67;1931;-75
2022/02/18 02:27:03;;;;;;;;;;;;;;;;;;2206914;59;1799;-75
2022/02/18 02:29:37;;;;;;;;;;;;;;;;;;2205640;59;1660;-75
2022/02/18 02:32:13;;;;;;;;;;;;;;;;;;2206396;59;1733;-75
2022/02/18 02:34:47;;;;;;;;;;;;;;;;;;2207203;67;1195;-75
2022/02/18 02:37:22;;;;;;;;;;;;;;;;;;2207292;67;1072;-75
2022/02/18 02:39:58;;;;;;;;;;;;;;;;;;2207338;59;1356;-75
2022/02/18 02:42:31;;;;;;;;;;;;;;;;;;2206382;59;1832;-75
2022/02/18 02:45:05;;;;;;;;;;;;;;;;;;2206436;59;2000;-75
2022/02/18 02:47:40;;;;;;;;;;;;;;;;;;2206959;59;1266;-75
2022/02/18 02:50:13;;;;;;;;;;;;;;;;;;2206457;59;1757;-75
2022/02/18 02:52:46;;;;;;;;;;;;;;;;;;2206831;67;1084;-75
2022/02/18 02:55:23;;;;;;;;;;;;;;;;;;2206916;59;1653;-75
2022/02/18 02:57:56;;;;;;;;;;;;;;;;;;2206577;67;1028;-75
2022/02/18 03:00:29;;;;;;;;;;;;;;;;;;2206963;59;1842;-75
2022/02/18 03:03:02;;;;;;;;;;;;;;;;;;2206894;59;1808;-75
2022/02/18 03:05:36;;;;;;;;;;;;;;;;;;2206616;59;1927;-75
2022/02/18 03:08:09;;;;;;;;;;;;;;;;;;2207948;67;1180;-75
2022/02/18 03:11:14;;;;;;;;;;;;;;;;;;2207517;59;1779;-75
2022/02/18 03:13:42;;;;;;;;;;;;;;;;;;2207276;59;2467;-75
2022/02/18 03:16:15;;;;;;;;;;;;;;;;;;2207591;59;1309;-75
2022/02/18 03:18:49;;;;;;;;;;;;;;;;;;2207740;67;1001;-75
2022/02/18 03:21:22;;;;;;;;;;;;;;;;;;2208189;59;1418;-75
2022/02/18 03:23:56;;;;;;;;;;;;;;;;;;2207401;59;1570;-75
2022/02/18 03:26:32;;;;;;;;;;;;;;;;;;2207062;59;1999;-75
2022/02/18 03:29:05;;;;;;;;;;;;;;;;;;2207777;59;1229;-75
2022/02/18 03:31:38;;;;;;;;;;;;;;;;;;2206468;59;1537;-75
2022/02/18 03:34:11;;;;;;;;;;;;;;;;;;2207262;67;1124;-75
2022/02/18 03:36:45;;;;;;;;;;;;;;;;;;2207389;67;1126;-75
2022/02/18 03:39:18;;;;;;;;;;;;;;;;;;2207281;59;1496;-75
2022/02/18 03:41:54;;;;;;;;;;;;;;;;;;2207103;59;1902;-75
2022/02/18 03:44:27;;;;;;;;;;;;;;;;;;2207020;59;1121;-75
2022/02/18 03:47:01;;;;;;;;;;;;;;;;;;2207164;67;1975;-75
2022/02/18 03:49:34;;;;;;;;;;;;;;;;;;2207263;59;1776;-75
2022/02/18 03:52:09;;;;;;;;;;;;;;;;;;2206960;59;1469;-75
2022/02/18 03:54:42;;;;;;;;;;;;;;;;;;2206850;59;1797;-75
2022/02/18 03:57:20;;;;;;;;;;;;;;;;;;2207289;67;1106;-75
2022/02/18 03:59:53;;;;;;;;;;;;;;;;;;2207212;67;1204;-75
2022/02/18 04:02:26;;;;;;;;;;;;;;;;;;2207511;67;1236;-75
2022/02/18 04:05:00;;;;;;;;;;;;;;;;;;2207428;59;1119;-75
2022/02/18 04:07:33;;;;;;;;;;;;;;;;;;2206835;59;1630;-75
2022/02/18 04:10:07;;;;;;;;;;;;;;;;;;2206344;59;1763;-75
2022/02/18 04:12:49;;;;;;;;;;;;;;;;;;2206633;67;1033;-75
2022/02/18 04:15:22;;;;;;;;;;;;;;;;;;2206698;59;1505;-75
2022/02/18 04:17:55;;;;;;;;;;;;;;;;;;2207255;59;1472;-75
2022/02/18 04:20:29;;;;;;;;;;;;;;;;;;2207132;59;1884;-75
2022/02/18 04:23:02;;;;;;;;;;;;;;;;;;2207403;59;1498;-75
2022/02/18 04:25:36;;;;;;;;;;;;;;;;;;2208097;59;1984;-75
2022/02/18 04:28:12;;;;;;;;;;;;;;;;;;2209012;67;1096;-75
2022/02/18 04:30:45;;;;;;;;;;;;;;;;;;2207303;53;2054;-70
2022/02/18 04:33:18;;;;;;;;;;;;;;;;;;2205269;59;1191;-70
2022/02/18 04:35:51;;;;;;;;;;;;;;;;;;2206304;67;1105;-69
2022/02/18 04:38:24;;;;;;;;;;;;;;;;;;2207177;67;1108;-70
2022/02/18 04:40:58;;;;;;;;;;;;;;;;;;2207367;59;1459;-70
2022/02/18 04:43:34;;;;;;;;;;;;;;;;;;2206931;59;1108;-69
2022/02/18 04:46:07;;;;;;;;;;;;;;;;;;2207348;59;1937;-70
2022/02/18 04:48:40;;;;;;;;;;;;;;;;;;2207269;59;1328;-70
2022/02/18 04:51:13;;;;;;;;;;;;;;;;;;2205722;59;1689;-70
2022/02/18 04:53:46;;;;;;;;;;;;;;;;;;2206722;59;1501;-69
2022/02/18 04:56:19;;;;;;;;;;;;;;;;;;2206787;67;1200;-70
2022/02/18 04:58:55;;;;;;;;;;;;;;;;;;2207138;67;1168;-70
2022/02/18 05:01:29;;;;;;;;;;;;;;;;;;2207162;67;1237;-70
2022/02/18 05:04:02;;;;;;;;;;;;;;;;;;2207128;67;1207;-70
2022/02/18 05:06:35;;;;;;;;;;;;;;;;;;2206994;59;1929;-70
2022/02/18 05:09:08;;;;;;;;;;;;;;;;;;2207149;67;1198;-70
2022/02/18 05:11:43;;;;;;;;;;;;;;;;;;2206214;59;1765;-70
2022/02/18 05:14:19;;;;;;;;;;;;;;;;;;2206177;59;1997;-70
2022/02/18 05:16:52;;;;;;;;;;;;;;;;;;2207018;59;1454;-70
2022/02/18 05:19:25;;;;;;;;;;;;;;;;;;2207037;67;1212;-70
2022/02/18 05:21:58;;;;;;;;;;;;;;;;;;2206690;59;1742;-70
2022/02/18 05:24:31;;;;;;;;;;;;;;;;;;2206653;59;1602;-69
2022/02/18 05:27:05;;;;;;;;;;;;;;;;;;2206721;67;1968;-70
2022/02/18 05:29:40;;;;;;;;;;;;;;;;;;2206378;59;1275;-70
2022/02/18 05:32:14;;;;;;;;;;;;;;;;;;2205717;59;1546;-70
2022/02/18 05:34:49;;;;;;;;;;;;;;;;;;2206620;59;1137;-70
2022/02/18 05:37:22;;;;;;;;;;;;;;;;;;2206985;59;1184;-70
2022/02/18 05:39:55;;;;;;;;;;;;;;;;;;2205565;59;1847;-70
2022/02/18 05:42:28;;;;;;;;;;;;;;;;;;2205951;59;1549;-70
2022/02/18 05:45:05;;;;;;;;;;;;;;;;;;2206376;67;1122;-70
2022/02/18 05:47:38;;;;;;;;;;;;;;;;;;2206814;59;1997;-70
2022/02/18 05:50:12;;;;;;;;;;;;;;;;;;2206209;59;1698;-70
2022/02/18 05:52:46;;;;;;;;;;;;;;;;;;2206229;59;1911;-70
2022/02/18 05:55:19;;;;;;;;;;;;;;;;;;2206594;67;1220;-70
2022/02/18 05:57:53;;;;;;;;;;;;;;;;;;2206606;67;1130;-69
2022/02/18 06:00:28;;;;;;;;;;;;;;;;;;2206188;59;1859;-70
2022/02/18 06:03:02;;;;;;;;;;;;;;;;;;2206833;67;1127;-70
2022/02/18 06:05:35;;;;;;;;;;;;;;;;;;2203259;59;1506;-70
2022/02/18 06:08:10;;;;;;;;;;;;;;;;;;2206793;59;1987;-70
2022/02/18 06:10:43;;;;;;;;;;;;;;;;;;2206222;59;1615;-69
2022/02/18 06:13:16;;;;;;;;;;;;;;;;;;2206586;59;1291;-70
2022/02/18 06:15:52;;;;;;;;;;;;;;;;;;2206559;67;1315;-70
2022/02/18 06:18:25;;;;;;;;;;;;;;;;;;2207168;59;1740;-70
2022/02/18 06:20:58;;;;;;;;;;;;;;;;;;2206723;59;1499;-70
2022/02/18 06:23:31;;;;;;;;;;;;;;;;;;2206741;59;1841;-70
2022/02/18 06:26:04;;;;;;;;;;;;;;;;;;2206852;67;1916;-70
2022/02/18 06:28:37;;;;;;;;;;;;;;;;;;2206927;67;1328;-69
2022/02/18 06:31:13;;;;;;;;;;;;;;;;;;2206106;59;1661;-70
2022/02/18 06:33:47;;;;;;;;;;;;;;;;;;2205955;67;1213;-70
2022/02/18 06:36:20;;;;;;;;;;;;;;;;;;2206634;67;1292;-70
2022/02/18 06:38:53;;;;;;;;;;;;;;;;;;2206574;67;1267;-70
2022/02/18 06:41:26;;;;;;;;;;;;;;;;;;2206718;67;1257;-70
2022/02/18 06:44:00;;;;;;;;;;;;;;;;;;2206328;67;1315;-70
2022/02/18 06:46:35;;;;;;;;;;;;;;;;;;2206544;59;1990;-70
2022/02/18 06:49:08;;;;;;;;;;;;;;;;;;2206787;59;1345;-70
2022/02/18 06:51:42;;;;;;;;;;;;;;;;;;2206234;59;1713;-70
2022/02/18 06:54:15;;;;;;;;;;;;;;;;;;2205752;59;1710;-70
2022/02/18 06:56:48;;;;;;;;;;;;;;;;;;2206430;59;1112;-70
2022/02/18 06:59:21;;;;;;;;;;;;;;;;;;2206364;67;1219;-70
2022/02/18 07:01:57;;;;;;;;;;;;;;;;;;2206374;59;1297;-70
2022/02/18 07:04:30;;;;;;;;;;;;;;;;;;2206560;67;1306;-70
2022/02/18 07:07:03;;;;;;;;;;;;;;;;;;2206909;59;1932;-70
2022/02/18 07:09:36;;;;;;;;;;;;;;;;;;2205621;59;1655;-70
2022/02/18 07:12:10;;;;;;;;;;;;;;;;;;2205974;59;1572;-71
2022/02/18 07:14:43;;;;;;;;;;;;;;;;;;2205744;67;1168;-70
2022/02/18 07:17:19;;;;;;;;;;;;;;;;;;2206787;59;1453;-70
2022/02/18 07:19:52;;;;;;;;;;;;;;;;;;2206853;59;1242;-70
2022/02/18 07:22:26;;;;;;;;;;;;;;;;;;2206533;59;1287;-70
2022/02/18 07:24:59;;;;;;;;;;;;;;;;;;2206683;67;1213;-70
2022/02/18 07:27:33;;;;;;;;;;;;;;;;;;2206688;67;1982;-69
2022/02/18 07:30:07;;;;;;;;;;;;;;;;;;2205844;59;2102;-69
2022/02/18 07:32:43;;;;;;;;;;;;;;;;;;2206130;59;1597;-70
2022/02/18 07:35:16;;;;;;;;;;;;;;;;;;2206531;67;1170;-70
2022/02/18 07:37:49;;;;;;;;;;;;;;;;;;2206556;59;1640;-69
2022/02/18 07:40:23;;;;;;;;;;;;;;;;;;2205388;67;1242;-69
2022/02/18 07:42:56;;;;;;;;;;;;;;;;;;2206581;67;1255;-69
2022/02/18 07:45:29;;;;;;;;;;;;;;;;;;2206151;60;1145;-69
2022/02/18 07:48:05;;;;;;;;;;;;;;;;;;2206535;59;1939;-70
2022/02/18 07:50:38;;;;;;;;;;;;;;;;;;2206130;59;1653;-70
2022/02/18 07:53:11;;;;;;;;;;;;;;;;;;2206966;67;1095;-69
2022/02/18 07:55:44;;;;;;;;;;;;;;;;;;2207122;67;1122;-69
2022/02/18 07:58:17;;;;;;;;;;;;;;;;;;2207225;59;2383;-70
2022/02/18 08:00:51;;;;;;;;;;;;;;;;;;2206765;59;1301;-70
2022/02/18 08:03:28;;;;;;;;;;;;;;;;;;2207213;59;1247;-70
2022/02/18 08:06:02;;;;;;;;;;;;;;;;;;2207324;67;1077;-70
2022/02/18 08:08:36;;;;;;;;;;;;;;;;;;2207179;59;2011;-70
2022/02/18 08:11:09;;;;;;;;;;;;;;;;;;2206680;59;2441;-71
2022/02/18 08:13:43;;;;;;;;;;;;;;;;;;2206627;59;2066;-70
2022/02/18 08:16:16;;;;;;;;;;;;;;;;;;2207373;59;2201;-70
2022/02/18 08:18:54;;;;;;;;;;;;;;;;;;2207408;59;1395;-70
2022/02/18 08:21:27;;;;;;;;;;;;;;;;;;2207404;59;1461;-70
2022/02/18 08:24:00;;;;;;;;;;;;;;;;;;2206567;67;1119;-70
2022/02/18 08:26:33;;;;;;;;;;;;;;;;;;2206568;59;1933;-70
2022/02/18 08:29:06;;;;;;;;;;;;;;;;;;2206924;59;1150;-70
2022/02/18 08:31:39;;;;;;;;;;;;;;;;;;2206345;59;1897;-70
2022/02/18 08:34:15;;;;;;;;;;;;;;;;;;2206675;59;1141;-70
2022/02/18 08:36:49;;;;;;;;;;;;;;;;;;2203092;67;1424;-70
2022/02/18 08:39:22;;;;;;;;;;;;;;;;;;2207109;67;1089;-70
2022/02/18 08:41:55;;;;;;;;;;;;;;;;;;2206352;59;1785;-70
2022/02/18 08:44:28;;;;;;;;;;;;;;;;;;2206361;59;1150;-70
2022/02/18 08:47:01;;;;;;;;;;;;;;;;;;2206605;59;1934;-70
2022/02/18 08:49:40;;;;;;;;;;;;;;;;;;2206806;59;1518;-70
2022/02/18 08:52:13;;;;;;;;;;;;;;;;;;2206245;59;1779;-70
2022/02/18 08:54:46;;;;;;;;;;;;;;;;;;2206806;67;1101;-70
2022/02/18 08:57:19;;;;;;;;;;;;;;;;;;2206485;67;1244;-70
2022/02/18 08:59:52;;;;;;;;;;;;;;;;;;2203243;67;1263;-70
2022/02/18 09:02:27;;;;;;;;;;;;;;;;;;2206783;67;1192;-70
2022/02/18 09:05:03;;;;;;;;;;;;;;;;;;2207109;67;1476;-70
2022/02/18 09:07:36;;;;;;;;;;;;;;;;;;2206801;67;1938;-70
2022/02/18 09:10:09;;;;;;;;;;;;;;;;;;2207119;59;1361;-70
2022/02/18 09:12:43;;;;;;;;;;;;;;;;;;2205728;59;1895;-70
2022/02/18 09:15:18;;;;;;;;;;;;;;;;;;2206158;67;1161;-72
2022/02/18 09:17:51;;;;;;;;;;;;;;;;;;2206952;59;1274;-70
2022/02/18 09:20:27;;;;;;;;;;;;;;;;;;2206088;59;1458;-69
2022/02/18 09:23:00;;;;;;;;;;;;;;;;;;2206833;59;1350;-69
2022/02/18 09:25:33;;;;;;;;;;;;;;;;;;2206996;59;1106;-70
2022/02/18 09:28:06;;;;;;;;;;;;;;;;;;2206585;67;1981;-69
2022/02/18 09:30:43;;;;;;;;;;;;;;;;;;2202793;59;1570;-69
2022/02/18 09:33:17;;;;;;;;;;;;;;;;;;2206266;59;1223;-69
2022/02/18 09:35:53;;;;;;;;;;;;;;;;;;2206923;67;1161;-69
2022/02/18 09:38:27;;;;;;;;;;;;;;;;;;2206644;67;1046;-69
2022/02/18 09:41:01;;;;;;;;;;;;;;;;;;2206884;67;1227;-69
2022/02/18 09:43:34;;;;;;;;;;;;;;;;;;2206866;67;1138;-69
2022/02/18 09:46:07;;;;;;;;;;;;;;;;;;2206564;59;1391;-69
2022/02/18 09:48:40;;;;;;;;;;;;;;;;;;2206422;59;1927;-69
2022/02/18 09:51:18;;;;;;;;;;;;;;;;;;2205787;59;1882;-69
2022/02/18 09:53:53;;;;;;;;;;;;;;;;;;2206686;59;1120;-69
2022/02/18 09:56:27;;;;;;;;;;;;;;;;;;2206921;67;1063;-69
2022/02/18 09:59:01;;;;;;;;;;;;;;;;;;2206913;59;1685;-69
2022/02/18 10:01:34;;;;;;;;;;;;;;;;;;2205831;59;1630;-69
2022/02/18 10:04:07;;;;;;;;;;;;;;;;;;2206074;59;1185;-69
2022/02/18 10:06:43;;;;;;;;;;;;;;;;;;2206471;59;1121;-70
2022/02/18 10:09:17;;;;;;;;;;;;;;;;;;2206568;59;1979;-70
2022/02/18 10:11:55;;;;;;;;;;;;;;;;;;2206598;59;1663;-70
2022/02/18 10:14:28;;;;;;;;;;;;;;;;;;2206121;59;1215;-69
2022/02/18 10:17:11;;;;;;;;;;;;;;;;;;2206731;59;1341;-69
2022/02/18 10:19:51;;;;;;;;;;;;;;;;;;2206548;59;1275;-69
2022/02/18 10:22:30;;;;;;;;;;;;;;;;;;2205745;59;1378;-69
2022/02/18 10:25:08;;;;;;;;;;;;;;;;;;2206553;59;1109;-69
2022/02/18 10:27:45;;;;;;;;;;;;;;;;;;2206700;67;1932;-70
2022/02/18 10:35:32;;;;;;;;;;;;;;;;;;2208478;59;1622;-70
2022/02/18 10:38:09;;;;;;;;;;;;;;;;;;2212572;67;1062;-70
2022/02/18 10:40:43;;;;;;;;;;;;;;;;;;2211298;59;1276;-70
2022/02/18 10:43:18;;;;;;;;;;;;;;;;;;2208706;67;1214;-70
2022/02/18 10:45:59;;;;;;;;;;;;;;;;;;2207389;59;1503;-70
2022/02/18 10:48:36;;;;;;;;;;;;;;;;;;2206475;59;1928;-70
2022/02/18 10:51:11;;;;;;;;;;;;;;;;;;2207119;59;1865;-70
2022/02/18 10:53:48;;;;;;;;;;;;;;;;;;2206443;67;1029;-69
2022/02/18 10:56:21;;;;;;;;;;;;;;;;;;2206676;67;1197;-70
2022/02/18 10:58:55;;;;;;;;;;;;;;;;;;2206653;67;1129;-70
2022/02/18 11:01:29;;;;;;;;;;;;;;;;;;2206769;67;1261;-70
2022/02/18 11:04:03;;;;;;;;;;;;;;;;;;2206994;59;1099;-70
2022/02/18 11:06:37;;;;;;;;;;;;;;;;;;2206292;59;1232;-70
2022/02/18 11:09:14;;;;;;;;;;;;;;;;;;2207084;67;1925;-70
2022/02/18 11:11:48;;;;;;;;;;;;;;;;;;2206683;59;1614;-70
2022/02/18 11:14:21;;;;;;;;;;;;;;;;;;2207536;59;1120;-70
2022/02/18 11:16:55;;;;;;;;;;;;;;;;;;2207393;59;1368;-70
2022/02/18 11:19:28;;;;;;;;;;;;;;;;;;2206835;59;1144;-70
2022/02/18 11:22:02;;;;;;;;;;;;;;;;;;2203662;59;1523;-70
2022/02/18 11:24:40;;;;;;;;;;;;;;;;;;2206555;67;1230;-70
2022/02/18 11:27:13;;;;;;;;;;;;;;;;;;2206749;67;1172;-70
2022/02/18 11:29:46;;;;;;;;;;;;;;;;;;2207267;59;1921;-70
2022/02/18 11:32:24;;;;;;;;;;;;;;;;;;2207198;59;1869;-70
2022/02/18 11:35:05;;;;;;;;;;;;;;;;;;2206498;59;1049;-71
2022/02/18 11:37:52;;;;;;;;;;;;;;;;;;2207103;67;1137;-70
2022/02/18 11:40:58;;;;;;;;;;;;;;;;;;2208189;67;1178;-70
2022/02/18 11:43:35;;;;;;;;;;;;;;;;;;2207307;67;1096;-70
2022/02/18 11:46:09;;;;;;;;;;;;;;;;;;2208876;59;1309;-70
2022/02/18 11:48:43;;;;;;;;;;;;;;;;;;2207645;59;1996;-70
2022/02/18 11:51:17;;;;;;;;;;;;;;;;;;2203272;59;1855;-70
2022/02/18 11:53:52;;;;;;;;;;;;;;;;;;2207186;59;1173;-70
2022/02/18 11:56:42;;;;;;;;;;;;;;;;;;2207631;67;1171;-70
2022/02/18 11:59:18;;;;;;;;;;;;;;;;;;2207540;67;1172;-70
2022/02/18 12:02:12;;;;;;;;;;;;;;;;;;2206192;59;1522;-70
2022/02/18 12:05:05;;;;;;;;;;;;;;;;;;2206633;59;1220;-70
2022/02/18 12:07:39;;;;;;;;;;;;;;;;;;2207507;59;1162;-70
2022/02/18 12:10:13;;;;;;;;;;;;;;;;;;2207425;59;1937;-70
2022/02/18 12:12:48;;;;;;;;;;;;;;;;;;2205383;59;1711;-71
2022/02/18 12:15:27;;;;;;;;;;;;;;;;;;2208191;67;1211;-70
2022/02/18 12:18:03;;;;;;;;;;;;;;;;;;2208905;59;1395;-70
2022/02/18 12:20:37;;;;;;;;;;;;;;;;;;2207317;67;1441;-70
2022/02/18 12:23:23;;;;;;;;;;;;;;;;;;2209190;67;1399;-70
2022/02/18 12:26:11;;;;;;;;;;;;;;;;;;2206898;67;1273;-70
2022/02/18 12:28:45;;;;;;;;;;;;;;;;;;2206535;67;1921;-70
2022/02/18 12:31:21;;;;;;;;;;;;;;;;;;2208095;59;1801;-70
2022/02/18 12:33:54;;;;;;;;;;;;;;;;;;2206949;59;1072;-70
2022/02/18 12:36:27;;;;;;;;;;;;;;;;;;2206982;67;1196;-70
2022/02/18 12:39:00;;;;;;;;;;;;;;;;;;2207552;67;1209;-70
2022/02/18 12:41:33;;;;;;;;;;;;;;;;;;2208566;67;1242;-70
2022/02/18 12:44:07;;;;;;;;;;;;;;;;;;2209116;67;1427;-70
2022/02/18 12:46:43;;;;;;;;;;;;;;;;;;2207952;59;1441;-70
2022/02/18 12:49:16;;;;;;;;;;;;;;;;;;2207519;59;1983;-70
2022/02/18 12:51:49;;;;;;;;;;;;;;;;;;2205811;59;1855;-70
2022/02/18 12:54:22;;;;;;;;;;;;;;;;;;2207881;59;1638;-69
2022/02/18 12:56:56;;;;;;;;;;;;;;;;;;2208283;67;1077;-70
2022/02/18 12:59:29;;;;;;;;;;;;;;;;;;2207296;67;1219;-70
2022/02/18 13:02:06;;;;;;;;;;;;;;;;;;2208145;59;1240;-70
2022/02/18 13:04:39;;;;;;;;;;;;;;;;;;2207646;67;1138;-70
2022/02/18 13:07:12;;;;;;;;;;;;;;;;;;2208129;59;1803;-70
2022/02/18 13:09:49;;;;;;;;;;;;;;;;;;2207516;67;1932;-70
2022/02/18 13:12:23;;;;;;;;;;;;;;;;;;2204556;59;1732;-70
2022/02/18 13:15:05;;;;;;;;;;;;;;;;;;2207506;67;1089;-70
2022/02/18 13:17:45;;;;;;;;;;;;;;;;;;2208212;59;1337;-70
2022/02/18 13:20:29;;;;;;;;;;;;;;;;;;2208188;67;1508;-70
2022/02/18 13:23:04;;;;;;;;;;;;;;;;;;2208740;67;1329;-70
2022/02/18 13:25:38;;;;;;;;;;;;;;;;;;2206527;59;1146;-70
2022/02/18 13:28:13;;;;;;;;;;;;;;;;;;2209079;67;1104;-70
2022/02/18 13:30:48;;;;;;;;;;;;;;;;;;2207099;59;1941;-70
2022/02/18 13:33:29;;;;;;;;;;;;;;;;;;2207590;59;1514;-70
2022/02/18 13:36:04;;;;;;;;;;;;;;;;;;2207365;59;1910;-70
2022/02/18 13:38:40;;;;;;;;;;;;;;;;;;2206792;67;1174;-70
2022/02/18 13:41:14;;;;;;;;;;;;;;;;;;2208843;67;1312;-70
2022/02/18 13:43:49;;;;;;;;;;;;;;;;;;2207921;59;1228;-70
2022/02/18 13:46:29;;;;;;;;;;;;;;;;;;2208527;59;1811;-69
2022/02/18 13:49:06;;;;;;;;;;;;;;;;;;2204682;59;1992;-70
2022/02/18 13:51:40;;;;;;;;;;;;;;;;;;2207566;59;1676;-70
2022/02/18 13:54:14;;;;;;;;;;;;;;;;;;2207037;59;1551;-70
2022/02/18 13:56:47;;;;;;;;;;;;;;;;;;2208459;67;1264;-70
2022/02/18 13:59:21;;;;;;;;;;;;;;;;;;2204201;59;1409;-70
2022/02/18 14:01:55;;;;;;;;;;;;;;;;;;2207653;67;1154;-70
2022/02/18 14:04:32;;;;;;;;;;;;;;;;;;2208184;67;1199;-70
2022/02/18 14:07:07;;;;;;;;;;;;;;;;;;2208202;67;1119;-70
2022/02/18 14:09:43;;;;;;;;;;;;;;;;;;2202410;59;1952;-70
2022/02/18 14:12:17;;;;;;;;;;;;;;;;;;2207588;59;1660;-69
2022/02/18 14:15:00;;;;;;;;;;;;;;;;;;2208054;67;1057;-70
2022/02/18 14:17:33;;;;;;;;;;;;;;;;;;2208410;59;1503;-70
2022/02/18 14:20:13;;;;;;;;;;;;;;;;;;2208214;59;1435;-70
2022/02/18 14:22:48;;;;;;;;;;;;;;;;;;2207940;60;1386;-70
2022/02/18 14:25:26;;;;;;;;;;;;;;;;;;2208582;67;1328;-70
2022/02/18 14:28:00;;;;;;;;;;;;;;;;;;2204488;59;1215;-70
2022/02/18 14:30:43;;;;;;;;;;;;;;;;;;2207969;59;1929;-70
2022/02/18 14:33:23;;;;;;;;;;;;;;;;;;2207117;59;1236;-70
2022/02/18 14:35:59;;;;;;;;;;;;;;;;;;2207173;67;1121;-70
2022/02/18 14:38:33;;;;;;;;;;;;;;;;;;2208516;67;1236;-70
2022/02/18 14:41:06;;;;;;;;;;;;;;;;;;2205940;67;2016;-70
2022/02/18 14:43:52;;;;;;;;;;;;;;;;;;2207973;67;1197;-70
2022/02/18 14:46:25;;;;;;;;;;;;;;;;;;2208187;59;1409;-70
2022/02/18 14:49:00;;;;;;;;;;;;;;;;;;2207400;59;1931;-70
2022/02/18 14:51:36;;;;;;;;;;;;;;;;;;2207801;59;1695;-70
2022/02/18 14:54:09;;;;;;;;;;;;;;;;;;2207374;67;1127;-70
2022/02/18 14:56:43;;;;;;;;;;;;;;;;;;2208377;67;1164;-70
2022/02/18 14:59:16;;;;;;;;;;;;;;;;;;2206818;67;1165;-70
2022/02/18 15:01:49;;;;;;;;;;;;;;;;;;2208614;59;1806;-70
2022/02/18 15:04:22;;;;;;;;;;;;;;;;;;2202633;59;2354;-70
2022/02/18 15:06:58;;;;;;;;;;;;;;;;;;2204635;59;2607;-70
2022/02/18 15:09:32;;;;;;;;;;;;;;;;;;2207673;59;1932;-70
2022/02/18 15:12:07;;;;;;;;;;;;;;;;;;2207906;59;2072;-70
2022/02/18 15:14:41;;;;;;;;;;;;;;;;;;2207687;67;1095;-70
2022/02/18 15:17:15;;;;;;;;;;;;;;;;;;2209061;59;1331;-70
2022/02/18 15:19:49;;;;;;;;;;;;;;;;;;2209080;59;1190;-70
2022/02/18 15:22:25;;;;;;;;;;;;;;;;;;2208265;59;1406;-70
2022/02/18 15:24:58;;;;;;;;;;;;;;;;;;2209519;67;1271;-70
2022/02/18 15:27:31;;;;;;;;;;;;;;;;;;2209146;59;1386;-70
2022/02/18 15:35:43;;;;;;;;;;;;;;;;;;2205932;67;1125;-70
2022/02/18 15:38:20;;;;;;;;;;;;;;;;;;2208958;59;1167;-70
2022/02/18 15:43:43;;;;;;;;;;;;;;;;;;2209025;59;1065;-70
2022/02/18 15:46:16;;;;;;;;;;;;;;;;;;2209307;59;1536;-70
2022/02/18 15:48:49;;;;;;;;;;;;;;;;;;2208929;59;1478;-70
2022/02/18 15:51:25;;;;;;;;;;;;;;;;;;2206963;59;2008;-70
2022/02/18 15:54:01;;;;;;;;;;;;;;;;;;2207733;67;1175;-70
2022/02/18 15:56:34;;;;;;;;;;;;;;;;;;2209264;67;1129;-70
2022/02/18 15:59:07;;;;;;;;;;;;;;;;;;2207859;67;1461;-70
2022/02/18 16:01:43;;;;;;;;;;;;;;;;;;2206507;67;1190;-70
2022/02/18 16:04:24;;;;;;;;;;;;;;;;;;2208181;59;1238;-70
2022/02/18 16:06:57;;;;;;;;;;;;;;;;;;2208610;67;1210;-69
2022/02/18 16:09:34;;;;;;;;;;;;;;;;;;2208705;59;2000;-69
2022/02/18 16:12:08;;;;;;;;;;;;;;;;;;2206038;59;1951;-70
2022/02/18 16:14:41;;;;;;;;;;;;;;;;;;2208486;67;1091;-70
2022/02/18 16:17:16;;;;;;;;;;;;;;;;;;2206202;59;1533;-70
2022/02/18 16:19:49;;;;;;;;;;;;;;;;;;2205918;59;2141;-70
2022/02/18 16:22:23;;;;;;;;;;;;;;;;;;2208383;59;1536;-71
2022/02/18 16:24:59;;;;;;;;;;;;;;;;;;2208881;59;1883;-70
2022/02/18 16:27:32;;;;;;;;;;;;;;;;;;2208813;67;1232;-71
2022/02/18 16:30:06;;;;;;;;;;;;;;;;;;2207670;59;1924;-69
2022/02/18 16:32:40;;;;;;;;;;;;;;;;;;2208851;53;3622;-69
2022/02/18 16:35:13;;;;;;;;;;;;;;;;;;2210630;59;1488;-69
2022/02/18 16:37:47;;;;;;;;;;;;;;;;;;2213156;59;1114;-70
2022/02/18 16:40:22;;;;;;;;;;;;;;;;;;2212636;59;1289;-69
2022/02/18 16:42:55;;;;;;;;;;;;;;;;;;2213204;67;1238;-69
2022/02/18 16:45:29;;;;;;;;;;;;;;;;;;2213179;67;1230;-69
2022/02/18 16:48:02;;;;;;;;;;;;;;;;;;2212444;59;1584;-69
2022/02/18 16:50:35;;;;;;;;;;;;;;;;;;2213519;59;1925;-69
2022/02/18 16:53:08;;;;;;;;;;;;;;;;;;2211036;59;1866;-69
2022/02/18 16:55:44;;;;;;;;;;;;;;;;;;2212053;67;1043;-69
2022/02/18 16:58:17;;;;;;;;;;;;;;;;;;2210711;59;1254;-69
2022/02/18 17:00:50;;;;;;;;;;;;;;;;;;2209778;67;1108;-69
2022/02/18 17:03:23;;;;;;;;;;;;;;;;;;2210926;67;1080;-70
2022/02/18 17:05:57;;;;;;;;;;;;;;;;;;2210910;59;1263;-69
2022/02/18 17:08:30;;;;;;;;;;;;;;;;;;2209874;59;1191;-69
2022/02/18 17:11:06;;;;;;;;;;;;;;;;;;2209928;59;1927;-69
2022/02/18 17:13:39;;;;;;;;;;;;;;;;;;2211056;67;984;-70
2022/02/18 17:16:12;;;;;;;;;;;;;;;;;;2211561;59;1736;-69
2022/02/18 17:18:45;;;;;;;;;;;;;;;;;;2210900;59;1077;-69
2022/02/18 17:21:19;;;;;;;;;;;;;;;;;;2211042;59;1431;-69
2022/02/18 17:23:52;;;;;;;;;;;;;;;;;;2211072;59;1681;-69
2022/02/18 17:26:28;;;;;;;;;;;;;;;;;;2210768;59;1227;-69
2022/02/18 17:29:01;;;;;;;;;;;;;;;;;;2210177;59;1443;-69
2022/02/18 17:31:34;;;;;;;;;;;;;;;;;;2210223;59;2002;-69
2022/02/18 17:34:07;;;;;;;;;;;;;;;;;;2210236;59;1105;-69
2022/02/18 17:36:41;;;;;;;;;;;;;;;;;;2210151;67;1053;-69
2022/02/18 17:39:14;;;;;;;;;;;;;;;;;;2211116;59;1190;-69
2022/02/18 17:41:50;;;;;;;;;;;;;;;;;;2211377;59;1132;-69
2022/02/18 17:44:23;;;;;;;;;;;;;;;;;;2210463;67;1135;-69
2022/02/18 17:46:56;;;;;;;;;;;;;;;;;;2211418;59;1523;-69
2022/02/18 17:49:29;;;;;;;;;;;;;;;;;;2211237;59;1447;-69
2022/02/18 17:52:03;;;;;;;;;;;;;;;;;;2210903;59;1940;-69
2022/02/18 17:54:36;;;;;;;;;;;;;;;;;;2209908;67;1208;-69
2022/02/18 17:57:12;;;;;;;;;;;;;;;;;;2212330;67;1137;-69
2022/02/18 17:59:45;;;;;;;;;;;;;;;;;;2210095;67;1252;-69
2022/02/18 18:02:19;;;;;;;;;;;;;;;;;;2209119;59;1645;-69
2022/02/18 18:04:52;;;;;;;;;;;;;;;;;;2205492;59;2027;-69
2022/02/18 18:07:25;;;;;;;;;;;;;;;;;;2205177;59;1866;-69